sensor_id;sensor_type;location;lat;lon;timestamp;pressure;altitude;pressure_sealevel;temperature;humidity
11053;BME280;55230;42.602;23.470;2022-07-29T00:01:37;93688.22;;;18.22;100.00
11053;BME280;55230;42.602;23.470;2022-07-29T00:04:04;93620.03;;;17.69;100.00
11053;BME280;55230;42.602;23.470;2022-07-29T00:06:31;93716.44;;;18.56;100.00
11053;BME280;55230;42.602;23.470;2022-07-29T00:08:57;93757.66;;;18.58;100.00
11053;BME280;55230;42.602;23.470;2022-07-29T00:11:24;93583.31;;;17.59;100.00
11053;BME280;55230;42.602;23.470;2022-07-29T00:13:51;93561.66;;;17.45;100.00
11053;BME280;55230;42.602;23.470;2022-07-29T00:16:18;93655.91;;;18.04;100.00
11053;BME280;55230;42.602;23.470;2022-07-29T00:18:46;93776.75;;;18.53;100.00
11053;BME280;55230;42.602;23.470;2022-07-29T00:21:13;93599.94;;;17.67;100.00
11053;BME280;55230;42.602;23.470;2022-07-29T00:23:40;93691.44;;;18.21;100.00
11053;BME280;55230;42.602;23.470;2022-07-29T00:26:07;93687.69;;;18.13;100.00
11053;BME280;55230;42.602;23.470;2022-07-29T00:28:34;93624.81;;;17.38;100.00
11053;BME280;55230;42.602;23.470;2022-07-29T00:31:00;93733.22;;;18.38;100.00
11053;BME280;55230;42.602;23.470;2022-07-29T00:33:28;93554.03;;;17.12;100.00
11053;BME280;55230;42.602;23.470;2022-07-29T00:35:56;93735.91;;;18.27;100.00
11053;BME280;55230;42.602;23.470;2022-07-29T00:38:22;93737.63;;;18.24;100.00
11053;BME280;55230;42.602;23.470;2022-07-29T00:40:49;93744.00;;;18.10;100.00
11053;BME280;55230;42.602;23.470;2022-07-29T00:43:17;93725.19;;;18.18;100.00
11053;BME280;55230;42.602;23.470;2022-07-29T00:45:43;93718.47;;;18.13;100.00
11053;BME280;55230;42.602;23.470;2022-07-29T00:48:10;93566.91;;;17.11;100.00
11053;BME280;55230;42.602;23.470;2022-07-29T00:50:38;93714.22;;;18.07;100.00
11053;BME280;55230;42.602;23.470;2022-07-29T00:53:07;93718.44;;;18.08;100.00
11053;BME280;55230;42.602;23.470;2022-07-29T00:55:35;93537.25;;;16.82;100.00
11053;BME280;55230;42.602;23.470;2022-07-29T00:58:02;93716.19;;;18.01;100.00
11053;BME280;55230;42.602;23.470;2022-07-29T01:00:29;93698.72;;;17.82;100.00
11053;BME280;55230;42.602;23.470;2022-07-29T01:02:56;93663.63;;;17.64;100.00
11053;BME280;55230;42.602;23.470;2022-07-29T01:05:26;93568.41;;;16.76;100.00
11053;BME280;55230;42.602;23.470;2022-07-29T01:07:54;93750.94;;;18.06;100.00
11053;BME280;55230;42.602;23.470;2022-07-29T01:10:23;93638.09;;;17.24;100.00
11053;BME280;55230;42.602;23.470;2022-07-29T01:12:52;93717.88;;;17.98;100.00
11053;BME280;55230;42.602;23.470;2022-07-29T01:15:19;93647.97;;;17.53;100.00
11053;BME280;55230;42.602;23.470;2022-07-29T01:17:52;93710.19;;;17.97;100.00
11053;BME280;55230;42.602;23.470;2022-07-29T01:20:26;93713.66;;;17.92;100.00
11053;BME280;55230;42.602;23.470;2022-07-29T01:23:11;93707.50;;;17.60;100.00
11053;BME280;55230;42.602;23.470;2022-07-29T01:25:58;93713.13;;;17.88;100.00
11053;BME280;55230;42.602;23.470;2022-07-29T01:28:49;93706.19;;;17.87;100.00
11053;BME280;55230;42.602;23.470;2022-07-29T01:31:22;93592.38;;;17.03;100.00
11053;BME280;55230;42.602;23.470;2022-07-29T01:33:54;93718.13;;;17.89;100.00
11053;BME280;55230;42.602;23.470;2022-07-29T01:36:27;93616.47;;;17.15;100.00
11053;BME280;55230;42.602;23.470;2022-07-29T01:39:00;93714.63;;;17.89;100.00
11053;BME280;55230;42.602;23.470;2022-07-29T01:41:31;93706.91;;;17.82;100.00
11053;BME280;55230;42.602;23.470;2022-07-29T01:44:02;93717.53;;;17.80;100.00
11053;BME280;55230;42.602;23.470;2022-07-29T01:46:34;93771.25;;;17.99;100.00
11053;BME280;55230;42.602;23.470;2022-07-29T01:49:08;93486.16;;;16.66;100.00
11053;BME280;55230;42.602;23.470;2022-07-29T01:51:41;93677.88;;;17.79;100.00
11053;BME280;55230;42.602;23.470;2022-07-29T01:54:20;93693.25;;;17.82;100.00
11053;BME280;55230;42.602;23.470;2022-07-29T01:56:49;93702.09;;;17.66;100.00
11053;BME280;55230;42.602;23.470;2022-07-29T01:59:20;93491.38;;;16.07;100.00
11053;BME280;55230;42.602;23.470;2022-07-29T02:01:49;93698.41;;;17.74;100.00
11053;BME280;55230;42.602;23.470;2022-07-29T02:04:17;93534.53;;;16.82;100.00
11053;BME280;55230;42.602;23.470;2022-07-29T02:06:47;93700.56;;;18.01;100.00
11053;BME280;55230;42.602;23.470;2022-07-29T02:09:16;93687.41;;;18.05;100.00
11053;BME280;55230;42.602;23.470;2022-07-29T02:11:52;93680.72;;;18.06;100.00
11053;BME280;55230;42.602;23.470;2022-07-29T02:14:23;93637.69;;;17.74;100.00
11053;BME280;55230;42.602;23.470;2022-07-29T02:16:53;93580.19;;;17.35;100.00
11053;BME280;55230;42.602;23.470;2022-07-29T02:19:22;93480.22;;;16.68;100.00
11053;BME280;55230;42.602;23.470;2022-07-29T02:21:52;93679.72;;;18.04;100.00
11053;BME280;55230;42.602;23.470;2022-07-29T02:24:20;93604.66;;;17.66;100.00
11053;BME280;55230;42.602;23.470;2022-07-29T02:26:49;93709.84;;;18.26;100.00
11053;BME280;55230;42.602;23.470;2022-07-29T02:29:19;93215.41;;;14.47;100.00
11053;BME280;55230;42.602;23.470;2022-07-29T02:31:50;93693.06;;;18.44;100.00
11053;BME280;55230;42.602;23.470;2022-07-29T02:34:18;93678.81;;;17.76;100.00
11053;BME280;55230;42.602;23.470;2022-07-29T02:36:46;93432.59;;;16.52;100.00
11053;BME280;55230;42.602;23.470;2022-07-29T02:39:14;93215.28;;;15.13;100.00
11053;BME280;55230;42.602;23.470;2022-07-29T02:41:44;93680.44;;;17.99;100.00
11053;BME280;55230;42.602;23.470;2022-07-29T02:44:14;93684.97;;;18.13;100.00
11053;BME280;55230;42.602;23.470;2022-07-29T02:46:46;93500.94;;;16.96;100.00
11053;BME280;55230;42.602;23.470;2022-07-29T02:49:18;93587.25;;;17.53;100.00
11053;BME280;55230;42.602;23.470;2022-07-29T02:51:51;93655.81;;;17.88;100.00
11053;BME280;55230;42.602;23.470;2022-07-29T02:54:25;93635.47;;;17.83;100.00
11053;BME280;55230;42.602;23.470;2022-07-29T02:56:53;93623.31;;;17.79;100.00
11053;BME280;55230;42.602;23.470;2022-07-29T02:59:24;93323.66;;;15.99;100.00
11053;BME280;55230;42.602;23.470;2022-07-29T03:01:54;93678.84;;;18.34;100.00
11053;BME280;55230;42.602;23.470;2022-07-29T03:04:24;93682.38;;;18.40;100.00
11053;BME280;55230;42.602;23.470;2022-07-29T03:06:54;93739.22;;;18.42;100.00
11053;BME280;55230;42.602;23.470;2022-07-29T03:09:22;93304.25;;;15.86;100.00
11053;BME280;55230;42.602;23.470;2022-07-29T03:11:49;93661.66;;;18.12;100.00
11053;BME280;55230;42.602;23.470;2022-07-29T03:14:17;93615.47;;;18.03;100.00
11053;BME280;55230;42.602;23.470;2022-07-29T03:16:45;93639.56;;;18.15;100.00
11053;BME280;55230;42.602;23.470;2022-07-29T03:19:12;93681.94;;;18.64;100.00
11053;BME280;55230;42.602;23.470;2022-07-29T03:21:40;93679.22;;;18.75;100.00
11053;BME280;55230;42.602;23.470;2022-07-29T03:24:07;93675.50;;;18.78;100.00
11053;BME280;55230;42.602;23.470;2022-07-29T03:26:34;93684.44;;;18.79;100.00
11053;BME280;55230;42.602;23.470;2022-07-29T03:29:01;93599.16;;;18.30;99.41
11053;BME280;55230;42.602;23.470;2022-07-29T03:31:28;93681.19;;;18.69;98.68
11053;BME280;55230;42.602;23.470;2022-07-29T03:33:54;93672.03;;;18.89;98.51
11053;BME280;55230;42.602;23.470;2022-07-29T03:36:22;93580.78;;;18.31;97.38
11053;BME280;55230;42.602;23.470;2022-07-29T03:38:52;93677.28;;;19.03;96.04
11053;BME280;55230;42.602;23.470;2022-07-29T03:41:21;93678.00;;;19.04;95.12
11053;BME280;55230;42.602;23.470;2022-07-29T03:43:49;93677.50;;;19.11;93.78
11053;BME280;55230;42.602;23.470;2022-07-29T03:46:20;93684.25;;;19.15;93.86
11053;BME280;55230;42.602;23.470;2022-07-29T03:48:50;93481.47;;;17.79;93.29
11053;BME280;55230;42.602;23.470;2022-07-29T03:51:19;93625.75;;;18.35;91.45
11053;BME280;55230;42.602;23.470;2022-07-29T03:53:46;93642.00;;;18.94;92.00
11053;BME280;55230;42.602;23.470;2022-07-29T03:56:15;93708.38;;;19.33;93.07
11053;BME280;55230;42.602;23.470;2022-07-29T03:58:44;93694.44;;;19.20;92.06
11053;BME280;55230;42.602;23.470;2022-07-29T04:01:11;93719.53;;;19.74;93.70
11053;BME280;55230;42.602;23.470;2022-07-29T04:03:39;93729.38;;;20.27;91.73
11053;BME280;55230;42.602;23.470;2022-07-29T04:06:06;93704.63;;;20.95;87.43
11053;BME280;55230;42.602;23.470;2022-07-29T04:08:34;93729.66;;;21.56;83.47
11053;BME280;55230;42.602;23.470;2022-07-29T04:11:01;93710.50;;;22.29;78.99
11053;BME280;55230;42.602;23.470;2022-07-29T04:13:30;93686.00;;;22.31;74.40
11053;BME280;55230;42.602;23.470;2022-07-29T04:15:58;93716.84;;;23.04;72.69
11053;BME280;55230;42.602;23.470;2022-07-29T04:18:25;93597.16;;;22.04;72.21
11053;BME280;55230;42.602;23.470;2022-07-29T04:20:52;93713.78;;;22.88;72.39
11053;BME280;55230;42.602;23.470;2022-07-29T04:23:19;93715.06;;;22.69;72.16
11053;BME280;55230;42.602;23.470;2022-07-29T04:25:46;93261.84;;;19.03;72.73
11053;BME280;55230;42.602;23.470;2022-07-29T04:28:12;93633.41;;;21.78;73.99
11053;BME280;55230;42.602;23.470;2022-07-29T04:30:41;93655.56;;;21.56;76.07
11053;BME280;55230;42.602;23.470;2022-07-29T04:33:08;93564.59;;;20.63;77.51
11053;BME280;55230;42.602;23.470;2022-07-29T04:35:36;93657.97;;;21.41;76.69
11053;BME280;55230;42.602;23.470;2022-07-29T04:38:04;93225.81;;;19.05;73.06
11053;BME280;55230;42.602;23.470;2022-07-29T04:40:31;93587.69;;;22.24;70.42
11053;BME280;55230;42.602;23.470;2022-07-29T04:42:59;93695.03;;;23.56;69.98
11053;BME280;55230;42.602;23.470;2022-07-29T04:45:26;93701.13;;;24.38;66.79
11053;BME280;55230;42.602;23.470;2022-07-29T04:47:54;93709.22;;;24.96;63.50
11053;BME280;55230;42.602;23.470;2022-07-29T04:50:22;93664.25;;;25.63;59.58
11053;BME280;55230;42.602;23.470;2022-07-29T04:52:49;93697.50;;;24.43;65.41
11053;BME280;55230;42.602;23.470;2022-07-29T04:55:15;93536.00;;;21.61;71.79
11053;BME280;55230;42.602;23.470;2022-07-29T04:57:42;93714.22;;;24.06;68.54
11053;BME280;55230;42.602;23.470;2022-07-29T05:00:10;93640.53;;;23.04;71.35
11053;BME280;55230;42.602;23.470;2022-07-29T05:02:37;93547.72;;;22.04;71.07
11053;BME280;55230;42.602;23.470;2022-07-29T05:05:05;93722.50;;;22.92;73.29
11053;BME280;55230;42.602;23.470;2022-07-29T05:07:32;93440.19;;;20.48;74.52
11053;BME280;55230;42.602;23.470;2022-07-29T05:09:59;93618.66;;;21.82;74.11
11053;BME280;55230;42.602;23.470;2022-07-29T05:12:26;93733.28;;;22.48;75.40
11053;BME280;55230;42.602;23.470;2022-07-29T05:14:53;93716.50;;;22.09;79.27
11053;BME280;55230;42.602;23.470;2022-07-29T05:17:20;93565.50;;;20.72;81.71
11053;BME280;55230;42.602;23.470;2022-07-29T05:19:47;93533.53;;;20.80;81.12
11053;BME280;55230;42.602;23.470;2022-07-29T05:22:17;93427.97;;;20.14;77.87
11053;BME280;55230;42.602;23.470;2022-07-29T05:24:44;93688.13;;;22.43;77.07
11053;BME280;55230;42.602;23.470;2022-07-29T05:27:11;93576.78;;;21.51;77.94
11053;BME280;55230;42.602;23.470;2022-07-29T05:29:38;93741.75;;;22.50;81.08
11053;BME280;55230;42.602;23.470;2022-07-29T05:32:06;93445.22;;;20.03;75.98
11053;BME280;55230;42.602;23.470;2022-07-29T05:34:33;93562.19;;;20.84;78.72
11053;BME280;55230;42.602;23.470;2022-07-29T05:37:00;93731.22;;;22.06;77.50
11053;BME280;55230;42.602;23.470;2022-07-29T05:39:28;93733.16;;;22.11;77.16
11053;BME280;55230;42.602;23.470;2022-07-29T05:41:55;93754.28;;;22.21;78.92
11053;BME280;55230;42.602;23.470;2022-07-29T05:44:22;93660.28;;;22.10;78.20
11053;BME280;55230;42.602;23.470;2022-07-29T05:46:48;93702.72;;;22.57;78.15
11053;BME280;55230;42.602;23.470;2022-07-29T05:49:15;93741.81;;;22.87;77.86
11053;BME280;55230;42.602;23.470;2022-07-29T05:51:42;93669.22;;;22.16;74.97
11053;BME280;55230;42.602;23.470;2022-07-29T05:54:09;93738.25;;;23.29;74.09
11053;BME280;55230;42.602;23.470;2022-07-29T05:56:38;93661.06;;;22.29;77.43
11053;BME280;55230;42.602;23.470;2022-07-29T05:59:05;93745.25;;;23.30;71.96
11053;BME280;55230;42.602;23.470;2022-07-29T06:01:31;93652.41;;;22.62;74.79
11053;BME280;55230;42.602;23.470;2022-07-29T06:03:58;93319.22;;;20.38;75.36
11053;BME280;55230;42.602;23.470;2022-07-29T06:06:25;93762.91;;;23.16;75.34
11053;BME280;55230;42.602;23.470;2022-07-29T06:08:52;93722.28;;;22.48;77.56
11053;BME280;55230;42.602;23.470;2022-07-29T06:11:18;93750.81;;;22.45;78.20
11053;BME280;55230;42.602;23.470;2022-07-29T06:13:46;93749.09;;;22.84;79.29
11053;BME280;55230;42.602;23.470;2022-07-29T06:16:13;93592.31;;;21.67;80.21
11053;BME280;55230;42.602;23.470;2022-07-29T06:18:40;93748.63;;;23.18;78.55
11053;BME280;55230;42.602;23.470;2022-07-29T06:21:08;93584.41;;;21.88;79.24
11053;BME280;55230;42.602;23.470;2022-07-29T06:23:36;93647.19;;;21.97;78.27
11053;BME280;55230;42.602;23.470;2022-07-29T06:26:03;93360.34;;;19.74;79.10
11053;BME280;55230;42.602;23.470;2022-07-29T06:28:31;93751.66;;;23.38;77.08
11053;BME280;55230;42.602;23.470;2022-07-29T06:30:59;93751.91;;;23.53;72.23
11053;BME280;55230;42.602;23.470;2022-07-29T06:33:26;93212.41;;;19.36;73.83
11053;BME280;55230;42.602;23.470;2022-07-29T06:35:53;93710.25;;;22.51;75.42
11053;BME280;55230;42.602;23.470;2022-07-29T06:38:20;93523.81;;;21.38;74.02
11053;BME280;55230;42.602;23.470;2022-07-29T06:40:47;93723.47;;;22.52;75.17
11053;BME280;55230;42.602;23.470;2022-07-29T06:43:31;93750.53;;;22.91;75.57
11053;BME280;55230;42.602;23.470;2022-07-29T06:46:05;93747.75;;;23.10;75.46
11053;BME280;55230;42.602;23.470;2022-07-29T06:48:33;93668.69;;;22.60;76.32
11053;BME280;55230;42.602;23.470;2022-07-29T06:51:05;93748.75;;;23.31;72.79
11053;BME280;55230;42.602;23.470;2022-07-29T06:53:32;93744.19;;;23.33;74.16
11053;BME280;55230;42.602;23.470;2022-07-29T06:56:00;93744.16;;;23.83;74.38
11053;BME280;55230;42.602;23.470;2022-07-29T06:58:28;93769.16;;;24.17;70.35
11053;BME280;55230;42.602;23.470;2022-07-29T07:00:56;93750.06;;;24.06;69.10
11053;BME280;55230;42.602;23.470;2022-07-29T07:03:24;93360.31;;;21.48;66.61
11053;BME280;55230;42.602;23.470;2022-07-29T07:05:52;93754.41;;;24.15;65.68
11053;BME280;55230;42.602;23.470;2022-07-29T07:08:20;93690.34;;;23.38;67.43
11053;BME280;55230;42.602;23.470;2022-07-29T07:10:47;93720.41;;;23.67;65.89
11053;BME280;55230;42.602;23.470;2022-07-29T07:13:14;93630.50;;;22.56;66.76
11053;BME280;55230;42.602;23.470;2022-07-29T07:15:42;93601.50;;;22.74;66.30
11053;BME280;55230;42.602;23.470;2022-07-29T07:18:09;93742.41;;;23.99;65.21
11053;BME280;55230;42.602;23.470;2022-07-29T07:20:37;93694.94;;;23.48;65.01
11053;BME280;55230;42.602;23.470;2022-07-29T07:23:04;93745.75;;;24.50;64.82
11053;BME280;55230;42.602;23.470;2022-07-29T07:25:31;93776.59;;;24.87;63.61
11053;BME280;55230;42.602;23.470;2022-07-29T07:27:58;93739.81;;;24.59;63.88
11053;BME280;55230;42.602;23.470;2022-07-29T07:30:25;93738.22;;;24.24;63.54
11053;BME280;55230;42.602;23.470;2022-07-29T07:32:52;93717.75;;;24.46;62.10
11053;BME280;55230;42.602;23.470;2022-07-29T07:35:19;93694.63;;;24.62;61.16
11053;BME280;55230;42.602;23.470;2022-07-29T07:37:47;93732.28;;;25.19;60.26
11053;BME280;55230;42.602;23.470;2022-07-29T07:40:14;93730.38;;;25.61;60.01
11053;BME280;55230;42.602;23.470;2022-07-29T07:42:41;93714.13;;;24.51;59.88
11053;BME280;55230;42.602;23.470;2022-07-29T07:45:09;93684.31;;;24.75;58.62
11053;BME280;55230;42.602;23.470;2022-07-29T07:47:36;93722.69;;;25.33;56.06
11053;BME280;55230;42.602;23.470;2022-07-29T07:50:04;93512.78;;;23.96;55.56
11053;BME280;55230;42.602;23.470;2022-07-29T07:52:31;93722.81;;;26.02;52.53
11053;BME280;55230;42.602;23.470;2022-07-29T07:54:59;93715.53;;;26.69;50.20
11053;BME280;55230;42.602;23.470;2022-07-29T07:57:26;93536.47;;;25.62;46.63
11053;BME280;55230;42.602;23.470;2022-07-29T07:59:53;93720.50;;;27.13;48.28
11053;BME280;55230;42.602;23.470;2022-07-29T08:02:20;93627.38;;;26.80;45.27
11053;BME280;55230;42.602;23.470;2022-07-29T08:04:47;93548.31;;;26.49;45.40
11053;BME280;55230;42.602;23.470;2022-07-29T08:07:13;93724.25;;;26.80;45.90
11053;BME280;55230;42.602;23.470;2022-07-29T08:09:41;93729.75;;;27.23;45.91
11053;BME280;55230;42.602;23.470;2022-07-29T08:12:09;93746.00;;;27.19;46.21
11053;BME280;55230;42.602;23.470;2022-07-29T08:14:36;93721.03;;;27.63;45.28
11053;BME280;55230;42.602;23.470;2022-07-29T08:17:03;93583.84;;;26.81;46.58
11053;BME280;55230;42.602;23.470;2022-07-29T08:19:30;93732.50;;;27.89;43.42
11053;BME280;55230;42.602;23.470;2022-07-29T08:21:56;93541.78;;;25.60;45.94
11053;BME280;55230;42.602;23.470;2022-07-29T08:24:23;93718.19;;;26.89;45.19
11053;BME280;55230;42.602;23.470;2022-07-29T08:27:09;93715.72;;;27.21;47.89
11053;BME280;55230;42.602;23.470;2022-07-29T08:29:36;93623.00;;;26.85;44.87
11053;BME280;55230;42.602;23.470;2022-07-29T08:32:04;93651.94;;;27.42;43.15
11053;BME280;55230;42.602;23.470;2022-07-29T08:34:31;93739.94;;;28.17;43.21
11053;BME280;55230;42.602;23.470;2022-07-29T08:36:58;93702.25;;;27.99;43.53
11053;BME280;55230;42.602;23.470;2022-07-29T08:39:24;93436.44;;;25.92;42.55
11053;BME280;55230;42.602;23.470;2022-07-29T08:41:52;93718.88;;;27.91;42.51
11053;BME280;55230;42.602;23.470;2022-07-29T08:44:21;93725.28;;;27.13;43.66
11053;BME280;55230;42.602;23.470;2022-07-29T08:46:49;93673.66;;;27.23;44.86
11053;BME280;55230;42.602;23.470;2022-07-29T08:49:16;93711.63;;;27.73;47.31
11053;BME280;55230;42.602;23.470;2022-07-29T08:51:43;93596.53;;;27.42;43.71
11053;BME280;55230;42.602;23.470;2022-07-29T08:54:11;93712.03;;;28.22;45.28
11053;BME280;55230;42.602;23.470;2022-07-29T08:56:42;93690.34;;;27.38;45.63
11053;BME280;55230;42.602;23.470;2022-07-29T08:59:10;93715.81;;;27.44;46.06
11053;BME280;55230;42.602;23.470;2022-07-29T09:01:39;93654.00;;;26.91;45.41
11053;BME280;55230;42.602;23.470;2022-07-29T09:04:11;93721.19;;;27.42;45.44
11053;BME280;55230;42.602;23.470;2022-07-29T09:06:43;93597.16;;;26.97;46.53
11053;BME280;55230;42.602;23.470;2022-07-29T09:09:10;93705.91;;;27.86;45.79
11053;BME280;55230;42.602;23.470;2022-07-29T09:11:39;93708.31;;;28.05;47.96
11053;BME280;55230;42.602;23.470;2022-07-29T09:14:06;93718.88;;;27.99;44.25
11053;BME280;55230;42.602;23.470;2022-07-29T09:16:50;93701.31;;;28.26;46.65
11053;BME280;55230;42.602;23.470;2022-07-29T09:19:22;93703.97;;;28.72;45.29
11053;BME280;55230;42.602;23.470;2022-07-29T09:21:49;93613.81;;;28.25;43.67
11053;BME280;55230;42.602;23.470;2022-07-29T09:24:37;93667.34;;;29.20;43.21
11053;BME280;55230;42.602;23.470;2022-07-29T09:27:10;93705.69;;;29.86;43.95
11053;BME280;55230;42.602;23.470;2022-07-29T09:29:37;93419.91;;;27.73;43.86
11053;BME280;55230;42.602;23.470;2022-07-29T09:32:09;93509.03;;;28.88;44.54
11053;BME280;55230;42.602;23.470;2022-07-29T09:34:36;93707.00;;;30.69;43.46
11053;BME280;55230;42.602;23.470;2022-07-29T09:37:04;93651.00;;;30.82;42.29
11053;BME280;55230;42.602;23.470;2022-07-29T09:39:32;93669.78;;;31.25;40.67
11053;BME280;55230;42.602;23.470;2022-07-29T09:42:01;93707.53;;;31.52;38.08
11053;BME280;55230;42.602;23.470;2022-07-29T09:44:41;93524.94;;;28.88;38.11
11053;BME280;55230;42.602;23.470;2022-07-29T09:47:09;93718.47;;;30.55;38.52
11053;BME280;55230;42.602;23.470;2022-07-29T09:49:51;93660.66;;;30.81;38.87
11053;BME280;55230;42.602;23.470;2022-07-29T09:52:18;93699.41;;;31.47;40.34
11053;BME280;55230;42.602;23.470;2022-07-29T09:54:46;93663.03;;;30.67;38.10
11053;BME280;55230;42.602;23.470;2022-07-29T09:57:24;93671.78;;;30.46;38.67
11053;BME280;55230;42.602;23.470;2022-07-29T09:59:58;93605.72;;;29.39;39.17
11053;BME280;55230;42.602;23.470;2022-07-29T10:02:31;93559.88;;;28.98;41.35
11053;BME280;55230;42.602;23.470;2022-07-29T10:04:59;93685.53;;;30.44;41.71
11053;BME280;55230;42.602;23.470;2022-07-29T10:07:43;93677.53;;;30.66;36.89
11053;BME280;55230;42.602;23.470;2022-07-29T10:10:10;93350.09;;;27.67;37.64
11053;BME280;55230;42.602;23.470;2022-07-29T10:12:48;93639.16;;;30.05;38.62
11053;BME280;55230;42.602;23.470;2022-07-29T10:15:16;93668.19;;;30.53;39.26
11053;BME280;55230;42.602;23.470;2022-07-29T10:17:44;93656.56;;;30.30;37.62
11053;BME280;55230;42.602;23.470;2022-07-29T10:20:11;93669.44;;;29.77;37.69
11053;BME280;55230;42.602;23.470;2022-07-29T10:22:39;93663.75;;;29.92;37.83
11053;BME280;55230;42.602;23.470;2022-07-29T10:25:07;93658.16;;;30.16;38.07
11053;BME280;55230;42.602;23.470;2022-07-29T10:27:34;93607.19;;;29.89;39.60
11053;BME280;55230;42.602;23.470;2022-07-29T10:30:01;93521.97;;;29.67;38.70
11053;BME280;55230;42.602;23.470;2022-07-29T10:32:40;93671.03;;;31.14;38.73
11053;BME280;55230;42.602;23.470;2022-07-29T10:35:20;93650.66;;;31.38;37.73
11053;BME280;55230;42.602;23.470;2022-07-29T10:41:05;93620.97;;;31.60;36.55
11053;BME280;55230;42.602;23.470;2022-07-29T10:43:59;93647.41;;;31.95;34.63
11053;BME280;55230;42.602;23.470;2022-07-29T10:46:27;93556.06;;;30.26;36.04
11053;BME280;55230;42.602;23.470;2022-07-29T10:49:12;93648.94;;;31.26;38.67
11053;BME280;55230;42.602;23.470;2022-07-29T10:52:03;93637.47;;;31.75;37.09
11053;BME280;55230;42.602;23.470;2022-07-29T10:54:51;93637.00;;;32.05;36.89
11053;BME280;55230;42.602;23.470;2022-07-29T10:57:23;93632.03;;;32.23;35.65
11053;BME280;55230;42.602;23.470;2022-07-29T11:00:31;93637.53;;;32.40;35.50
11053;BME280;55230;42.602;23.470;2022-07-29T11:02:59;93632.19;;;32.25;34.26
11053;BME280;55230;42.602;23.470;2022-07-29T11:05:26;93595.72;;;32.04;34.34
11053;BME280;55230;42.602;23.470;2022-07-29T11:08:23;93630.56;;;32.12;35.41
11053;BME280;55230;42.602;23.470;2022-07-29T11:10:53;93629.22;;;32.04;34.31
11053;BME280;55230;42.602;23.470;2022-07-29T11:13:48;93631.16;;;31.75;33.48
11053;BME280;55230;42.602;23.470;2022-07-29T11:16:18;93579.00;;;31.58;35.04
11053;BME280;55230;42.602;23.470;2022-07-29T11:19:18;93625.72;;;32.13;33.71
11053;BME280;55230;42.602;23.470;2022-07-29T11:21:46;93541.88;;;31.55;34.69
11053;BME280;55230;42.602;23.470;2022-07-29T11:24:18;93625.78;;;32.41;34.70
11053;BME280;55230;42.602;23.470;2022-07-29T11:27:06;93625.63;;;32.77;34.07
11053;BME280;55230;42.602;23.470;2022-07-29T11:29:35;93614.00;;;32.81;33.86
11053;BME280;55230;42.602;23.470;2022-07-29T11:32:09;93614.31;;;32.75;34.00
11053;BME280;55230;42.602;23.470;2022-07-29T11:34:37;93619.47;;;32.89;33.97
11053;BME280;55230;42.602;23.470;2022-07-29T11:37:24;93542.88;;;32.06;35.79
11053;BME280;55230;42.602;23.470;2022-07-29T11:40:12;93605.53;;;32.41;33.87
11053;BME280;55230;42.602;23.470;2022-07-29T11:42:47;93569.31;;;32.05;34.26
11053;BME280;55230;42.602;23.470;2022-07-29T11:45:25;93610.88;;;32.10;33.05
11053;BME280;55230;42.602;23.470;2022-07-29T11:47:58;93612.34;;;32.21;33.83
11053;BME280;55230;42.602;23.470;2022-07-29T11:50:31;93501.72;;;30.96;35.50
11053;BME280;55230;42.602;23.470;2022-07-29T11:52:59;93601.81;;;31.83;34.34
11053;BME280;55230;42.602;23.470;2022-07-29T11:55:27;93526.47;;;31.28;33.70
11053;BME280;55230;42.602;23.470;2022-07-29T11:57:58;93553.63;;;31.63;33.97
11053;BME280;55230;42.602;23.470;2022-07-29T12:00:28;93590.34;;;31.69;33.64
11053;BME280;55230;42.602;23.470;2022-07-29T12:02:56;93563.25;;;31.43;35.26
11053;BME280;55230;42.602;23.470;2022-07-29T12:05:35;93605.31;;;31.74;33.29
11053;BME280;55230;42.602;23.470;2022-07-29T12:08:07;93596.13;;;31.45;33.03
11053;BME280;55230;42.602;23.470;2022-07-29T12:10:35;93619.09;;;31.62;33.85
11053;BME280;55230;42.602;23.470;2022-07-29T12:13:03;93597.59;;;31.46;33.84
11053;BME280;55230;42.602;23.470;2022-07-29T12:15:29;93594.19;;;31.84;34.35
11053;BME280;55230;42.602;23.470;2022-07-29T12:17:56;93507.16;;;31.03;33.91
11053;BME280;55230;42.602;23.470;2022-07-29T12:20:25;93581.38;;;31.71;33.81
11053;BME280;55230;42.602;23.470;2022-07-29T12:22:52;93598.66;;;31.96;34.80
11053;BME280;55230;42.602;23.470;2022-07-29T12:25:21;93604.72;;;31.76;32.92
11053;BME280;55230;42.602;23.470;2022-07-29T12:27:57;93592.78;;;31.56;34.03
11053;BME280;55230;42.602;23.470;2022-07-29T12:30:35;93592.91;;;31.22;34.07
11053;BME280;55230;42.602;23.470;2022-07-29T12:33:13;93609.72;;;30.88;33.60
11053;BME280;55230;42.602;23.470;2022-07-29T12:35:42;93573.22;;;30.67;35.01
11053;BME280;55230;42.602;23.470;2022-07-29T12:38:10;93479.09;;;30.38;35.85
11053;BME280;55230;42.602;23.470;2022-07-29T12:40:38;93421.09;;;30.18;34.96
11053;BME280;55230;42.602;23.470;2022-07-29T12:43:07;93564.91;;;31.29;34.20
11053;BME280;55230;42.602;23.470;2022-07-29T12:45:36;93548.47;;;31.60;35.59
11053;BME280;55230;42.602;23.470;2022-07-29T12:48:04;93580.84;;;31.82;34.63
11053;BME280;55230;42.602;23.470;2022-07-29T12:50:32;93505.06;;;31.66;33.91
11053;BME280;55230;42.602;23.470;2022-07-29T12:53:09;93586.84;;;32.43;31.74
11053;BME280;55230;42.602;23.470;2022-07-29T12:55:44;93585.94;;;32.22;32.38
11053;BME280;55230;42.602;23.470;2022-07-29T12:58:25;93463.63;;;31.44;33.60
11053;BME280;55230;42.602;23.470;2022-07-29T13:01:05;93449.53;;;31.42;31.51
11053;BME280;55230;42.602;23.470;2022-07-29T13:03:46;93564.59;;;31.98;31.92
11053;BME280;55230;42.602;23.470;2022-07-29T13:06:34;93557.34;;;31.85;34.76